This is the latest recevied weather packets stored in our database for station/object K4AGR-13. If no packets are shown the sender has not sent any weather packets the latest 10 day(s).
| Time | Temp. | Humidity | Pressure | Rain* | Wind** | Luminosity | Snow |
|---|---|---|---|---|---|---|---|
| 1777838490 | 23.89° C | 30% | 1018.3 hPa | 0 mm | - | 859 W/m² | - |
| 1777838187 | 23.89° C | 29% | 1018.2 hPa | 0 mm | - | 887 W/m² | - |
| 1777837884 | 23.33° C | 32% | 1018.4 hPa | 0 mm | - | 909 W/m² | - |
| 1777837581 | 23.33° C | 30% | 1018.4 hPa | 0 mm | - | 928 W/m² | - |
| 1777837276 | 23.33° C | 31% | 1018.7 hPa | 0 mm | - | 836 W/m² | - |
| 1777836973 | 23.33° C | 31% | 1018.8 hPa | 0 mm | - | 736 W/m² | - |
| 1777836668 | 23.89° C | 29% | 1018.7 hPa | 0 mm | - | 792 W/m² | - |
| 1777836364 | 24.44° C | 29% | 1018.9 hPa | 0 mm | - | 899 W/m² | - |
| 1777836060 | 23.33° C | 30% | 1018.9 hPa | 0 mm | - | 924 W/m² | - |
| 1777835757 | 23.89° C | 30% | 1019.1 hPa | 0 mm | - | 923 W/m² | - |
| 1777835454 | 23.89° C | 29% | 1019.3 hPa | 0 mm | - | 910 W/m² | - |
| 1777835151 | 23.89° C | 29% | 1019.1 hPa | 0 mm | - | 984 W/m² | - |
| 1777834848 | 23.89° C | 29% | 1019.1 hPa | 0 mm | - | 1009 W/m² | - |
| 1777834544 | 23.33° C | 27% | 1019.2 hPa | 0 mm | - | 956 W/m² | - |
| 1777834244 | 23.89° C | 28% | 1019.1 hPa | 0 mm | - | 1016 W/m² | - |
| 1777833940 | 23.89° C | 29% | 1019.1 hPa | 0 mm | - | 1002 W/m² | - |
| 1777833637 | 22.78° C | 32% | 1019.3 hPa | 0 mm | - | 1019 W/m² | - |
| 1777833334 | 22.78° C | 33% | 1019.3 hPa | 0 mm | - | 1019 W/m² | - |
| 1777833031 | 23.33° C | 35% | 1019.4 hPa | 0 mm | - | 1024 W/m² | - |
| 1777832729 | 23.89° C | 33% | 1019.3 hPa | 0 mm | - | 1027 W/m² | - |
| 1777832427 | 22.78° C | 32% | 1019.5 hPa | 0 mm | - | 1032 W/m² | - |
| 1777832124 | 22.78° C | 31% | 1019.4 hPa | 0 mm | - | 1035 W/m² | - |
| 1777831820 | 22.22° C | 34% | 1019.8 hPa | 0 mm | - | 1038 W/m² | - |
| 1777831518 | 22.78° C | 32% | 1019.5 hPa | 0 mm | - | 1042 W/m² | - |
| 1777831215 | 23.33° C | 31% | 1019.5 hPa | 0 mm | - | 1045 W/m² | - |
* Rain latest hour (hover to see other rain measurements)
** Current wind speed in m/s (hover to see current wind gust speed)